createdAt,value
2023-04-22T00:01:56.917Z,98087.63
2023-04-22T00:04:26.107Z,98081.94
2023-04-22T00:07:02.685Z,98085.28
2023-04-22T00:09:37.009Z,98085.31
2023-04-22T00:12:16.573Z,98085.59
2023-04-22T00:14:56.611Z,98088.00
2023-04-22T00:17:28.711Z,98087.06
2023-04-22T00:20:14.164Z,98086.31
2023-04-22T00:22:48.348Z,98083.50
2023-04-22T00:25:23.086Z,98081.41
2023-04-22T00:28:11.448Z,98083.22
2023-04-22T00:30:51.520Z,98081.28
2023-04-22T00:33:32.477Z,98085.78
2023-04-22T00:36:03.452Z,98080.91
2023-04-22T00:38:39.159Z,98078.97
2023-04-22T00:41:20.065Z,98078.78
2023-04-22T00:43:55.150Z,98069.41
2023-04-22T00:46:29.330Z,98071.66
2023-04-22T00:49:03.277Z,98070.34
2023-04-22T00:51:57.568Z,98079.53
2023-04-22T00:54:37.917Z,98080.47
2023-04-22T00:57:14.387Z,98085.75
2023-04-22T01:00:05.020Z,98082.69
2023-04-22T01:02:43.348Z,98089.44
2023-04-22T01:05:18.656Z,98085.88
2023-04-22T01:07:53.284Z,98086.53
2023-04-22T01:10:24.019Z,98084.91
2023-04-22T01:12:53.260Z,98080.84
2023-04-22T01:15:31.937Z,98088.50
2023-04-22T01:18:05.013Z,98081.22
2023-04-22T01:20:39.084Z,98084.81
2023-04-22T01:23:19.286Z,98089.13
2023-04-22T01:25:59.776Z,98087.91
2023-04-22T01:28:33.296Z,98082.97
2023-04-22T01:31:02.698Z,98078.94
2023-04-22T01:33:38.925Z,98084.31
2023-04-22T01:36:11.000Z,98083.59
2023-04-22T01:38:47.570Z,98086.78
2023-04-22T01:41:21.671Z,98085.25
2023-04-22T01:43:52.001Z,98082.56
2023-04-22T01:46:31.779Z,98085.63
2023-04-22T01:49:04.462Z,98086.56
2023-04-22T01:51:36.807Z,98082.25
2023-04-22T01:54:20.340Z,98078.97
2023-04-22T01:56:56.212Z,98083.63
2023-04-22T01:59:27.870Z,98081.28
2023-04-22T02:02:00.759Z,98079.50
2023-04-22T02:04:34.264Z,98076.06
2023-04-22T02:07:22.171Z,98076.84
2023-04-22T02:09:55.573Z,98078.13
2023-04-22T02:12:35.539Z,98077.41
2023-04-22T02:15:11.476Z,98077.41
2023-04-22T02:17:44.115Z,98087.63
2023-04-22T02:20:15.676Z,98085.31
2023-04-22T02:22:57.275Z,98080.66
2023-04-22T02:25:37.254Z,98079.22
2023-04-22T02:28:10.397Z,98073.44
2023-04-22T02:30:55.040Z,98074.53
2023-04-22T02:33:37.269Z,98074.31
2023-04-22T02:36:21.677Z,98078.78
2023-04-22T02:38:57.188Z,98072.63
2023-04-22T02:41:32.965Z,98075.81
2023-04-22T02:44:17.379Z,98071.47
2023-04-22T02:46:54.025Z,98070.50
2023-04-22T02:49:33.152Z,98070.91
2023-04-22T02:52:13.077Z,98070.63
2023-04-22T02:54:49.903Z,98072.75
2023-04-22T02:57:38.000Z,98074.81
2023-04-22T03:00:13.136Z,98076.19
2023-04-22T03:02:52.182Z,98074.22
2023-04-22T03:05:21.703Z,98073.47
2023-04-22T03:07:50.974Z,98077.53
2023-04-22T03:10:25.030Z,98070.19
2023-04-22T03:12:56.024Z,98070.91
2023-04-22T03:15:30.138Z,98074.59
2023-04-22T03:18:04.996Z,98072.94
2023-04-22T03:20:39.799Z,98085.06
2023-04-22T03:23:13.814Z,98080.41
2023-04-22T03:25:51.451Z,98068.16
2023-04-22T03:28:28.638Z,98072.66
2023-04-22T03:31:15.814Z,98064.72
2023-04-22T03:33:52.180Z,98077.94
2023-04-22T03:36:34.380Z,98069.38
2023-04-22T03:39:13.323Z,98079.16
2023-04-22T03:41:49.871Z,98078.84
2023-04-22T03:44:29.629Z,98088.34
2023-04-22T03:47:02.827Z,98084.97
2023-04-22T03:49:40.901Z,98089.66
2023-04-22T03:52:12.484Z,98082.50
2023-04-22T03:54:50.422Z,98087.63
2023-04-22T03:57:30.171Z,98079.69
2023-04-22T04:00:04.575Z,98084.34
2023-04-22T04:02:36.627Z,98089.22
2023-04-22T04:05:12.539Z,98084.66
2023-04-22T04:07:44.752Z,98088.72
2023-04-22T04:10:15.713Z,98085.06
2023-04-22T04:12:47.963Z,98087.72
2023-04-22T04:15:25.745Z,98086.91
2023-04-22T04:18:01.559Z,98089.66
2023-04-22T04:20:41.740Z,98086.50
2023-04-22T04:23:16.806Z,98087.31
2023-04-22T04:25:56.138Z,98088.31
2023-04-22T04:28:35.382Z,98086.28
2023-04-22T04:31:07.620Z,98087.06
2023-04-22T04:33:42.690Z,98089.69
2023-04-22T04:36:45.122Z,98094.47
2023-04-22T04:39:25.622Z,98092.13
2023-04-22T04:42:09.896Z,98100.31
2023-04-22T04:44:48.777Z,98095.88
2023-04-22T04:47:29.326Z,98103.72
2023-04-22T04:50:04.585Z,98103.41
2023-04-22T04:52:42.075Z,98100.41
2023-04-22T04:55:24.607Z,98099.66
2023-04-22T04:58:06.420Z,98099.19
2023-04-22T05:00:46.141Z,98101.19
2023-04-22T05:03:16.914Z,98107.97
2023-04-22T05:05:57.573Z,98102.88
2023-04-22T05:08:29.397Z,98100.38
2023-04-22T05:11:01.704Z,98093.66
2023-04-22T05:13:46.321Z,98092.81
2023-04-22T05:16:29.967Z,98089.47
2023-04-22T05:18:59.799Z,98088.22
2023-04-22T05:21:28.337Z,98090.03
2023-04-22T05:23:56.554Z,98091.41
2023-04-22T05:26:25.230Z,98089.88
2023-04-22T05:28:56.555Z,98093.91
2023-04-22T05:31:25.714Z,98088.63
2023-04-22T05:33:53.991Z,98094.09
2023-04-22T05:36:23.929Z,98097.31
2023-04-22T05:38:52.193Z,98099.13
2023-04-22T05:41:20.815Z,98104.16
2023-04-22T05:43:49.020Z,98101.06
2023-04-22T05:46:17.717Z,98088.16
2023-04-22T05:48:45.934Z,98095.19
2023-04-22T05:51:14.409Z,98094.50
2023-04-22T05:53:44.017Z,98094.53
2023-04-22T05:56:12.624Z,98095.72
2023-04-22T05:58:41.086Z,98103.22
2023-04-22T06:01:10.120Z,98100.50
2023-04-22T06:03:38.589Z,98099.50
2023-04-22T06:06:07.907Z,98096.88
2023-04-22T06:08:36.179Z,98105.53
2023-04-22T06:11:06.337Z,98101.28
2023-04-22T06:13:34.492Z,98098.47
2023-04-22T06:16:05.240Z,98106.63
2023-04-22T06:18:34.273Z,98101.16
2023-04-22T06:21:03.620Z,98102.03
2023-04-22T06:23:31.765Z,98103.50
2023-04-22T06:26:01.671Z,98105.69
2023-04-22T06:28:31.862Z,98102.25
2023-04-22T06:31:00.457Z,98098.34
2023-04-22T06:33:28.881Z,98099.31
2023-04-22T06:35:57.515Z,98100.97
2023-04-22T06:38:25.805Z,98102.25
2023-04-22T06:40:54.238Z,98102.84
2023-04-22T06:43:22.516Z,98103.16
2023-04-22T06:45:52.426Z,98102.31
2023-04-22T06:48:20.704Z,98100.72
2023-04-22T06:50:49.279Z,98096.47
2023-04-22T06:53:17.658Z,98102.56
2023-04-22T06:55:46.364Z,98089.47
2023-04-22T06:58:14.553Z,98090.59
2023-04-22T07:00:43.664Z,98095.91
2023-04-22T07:03:13.421Z,98087.91
2023-04-22T07:05:41.982Z,98088.88
2023-04-22T07:08:10.239Z,98086.94
2023-04-22T07:10:38.690Z,98089.59
2023-04-22T07:13:07.008Z,98097.91
2023-04-22T07:15:38.325Z,98093.03
2023-04-22T07:18:06.917Z,98096.19
2023-04-22T07:20:36.924Z,98097.91
2023-04-22T07:23:05.222Z,98090.38
2023-04-22T07:25:33.676Z,98091.22
2023-04-22T07:28:01.842Z,98093.84
2023-04-22T07:30:30.368Z,98099.31
2023-04-22T07:32:58.700Z,98091.03
2023-04-22T07:35:28.714Z,98096.66
2023-04-22T07:37:58.379Z,98100.22
2023-04-22T07:40:26.878Z,98087.19
2023-04-22T07:42:55.277Z,98096.69
2023-04-22T07:45:23.916Z,98085.97
2023-04-22T07:47:52.142Z,98087.47
2023-04-22T07:50:20.861Z,98095.56
2023-04-22T07:52:49.093Z,98088.97
2023-04-22T07:55:19.300Z,98095.72
2023-04-22T07:57:47.666Z,98090.31
2023-04-22T08:00:19.234Z,98095.41
2023-04-22T08:02:47.644Z,98092.66
2023-04-22T08:05:16.353Z,98091.53
2023-04-22T08:07:44.772Z,98089.19
2023-04-22T08:10:13.541Z,98086.91
2023-04-22T08:12:44.191Z,98083.13
2023-04-22T08:15:13.896Z,98087.75
2023-04-22T08:17:42.331Z,98078.75
2023-04-22T08:20:11.480Z,98093.56
2023-04-22T08:22:40.058Z,98084.28
2023-04-22T08:25:09.809Z,98083.03
2023-04-22T08:27:39.342Z,98081.91
2023-04-22T08:30:12.434Z,98095.31
2023-04-22T08:32:41.348Z,98090.03
2023-04-22T08:35:11.748Z,98089.34
2023-04-22T08:37:40.637Z,98090.59
2023-04-22T08:40:10.354Z,98083.78
2023-04-22T08:42:38.745Z,98077.09
2023-04-22T08:45:09.943Z,98078.00
2023-04-22T08:47:39.027Z,98073.47
2023-04-22T08:50:09.821Z,98074.34
2023-04-22T08:52:38.948Z,98082.63
2023-04-22T08:55:08.437Z,98078.56
2023-04-22T08:57:37.859Z,98076.44
2023-04-22T09:00:08.906Z,98070.44
2023-04-22T09:02:39.430Z,98072.06
2023-04-22T09:05:11.326Z,98066.19
2023-04-22T09:07:41.025Z,98051.81
2023-04-22T09:10:12.073Z,98059.66
2023-04-22T09:12:42.009Z,98067.22
2023-04-22T09:15:10.874Z,98060.31
2023-04-22T09:17:41.426Z,98055.06
2023-04-22T09:20:10.575Z,98057.56
2023-04-22T09:22:40.039Z,98058.47
2023-04-22T09:25:09.250Z,98058.22
2023-04-22T09:27:37.489Z,98056.84
2023-04-22T09:30:10.026Z,98046.09
2023-04-22T09:32:38.293Z,98051.56
2023-04-22T09:35:08.892Z,98047.50
2023-04-22T09:37:48.524Z,98048.69
2023-04-22T09:40:19.875Z,98041.34
2023-04-22T09:42:51.219Z,98045.34
2023-04-22T09:45:30.249Z,98038.50
2023-04-22T09:48:01.301Z,98031.00
2023-04-22T09:50:31.526Z,98029.91
2023-04-22T09:53:01.834Z,98027.53
2023-04-22T09:55:32.355Z,98017.38
2023-04-22T09:58:07.218Z,98025.59
2023-04-22T10:00:37.976Z,98023.13
2023-04-22T10:03:08.927Z,98016.31
2023-04-22T10:05:41.485Z,98011.81
2023-04-22T10:08:10.951Z,98006.47
2023-04-22T10:10:40.198Z,98011.88
2023-04-22T10:13:09.338Z,98014.81
2023-04-22T10:15:40.207Z,98007.66
2023-04-22T10:18:11.660Z,98012.50
2023-04-22T10:20:42.774Z,98003.63
2023-04-22T10:23:16.437Z,97999.53
2023-04-22T10:25:49.264Z,97995.53
2023-04-22T10:28:18.662Z,98004.38
2023-04-22T10:30:47.756Z,98002.69
2023-04-22T10:33:39.211Z,98005.78
2023-04-22T10:36:11.815Z,97996.03
2023-04-22T10:38:41.460Z,97989.81
2023-04-22T10:41:15.967Z,97982.78
2023-04-22T10:43:45.650Z,97994.56
2023-04-22T10:47:02.957Z,97985.47
2023-04-22T10:49:32.041Z,97980.31
2023-04-22T10:52:04.121Z,97982.06
2023-04-22T10:54:57.323Z,97974.88
2023-04-22T10:57:40.319Z,97966.34
2023-04-22T11:00:23.322Z,97976.56
2023-04-22T11:02:59.230Z,97970.63
2023-04-22T11:05:29.099Z,97964.34
2023-04-22T11:08:03.003Z,97972.31
2023-04-22T11:10:42.378Z,97968.53
2023-04-22T11:13:15.097Z,97976.34
2023-04-22T11:15:44.668Z,97969.81
2023-04-22T11:18:18.630Z,97965.09
2023-04-22T11:20:48.546Z,97947.81
2023-04-22T11:23:26.569Z,97943.47
2023-04-22T11:25:58.731Z,97937.13
2023-04-22T11:28:27.293Z,97941.56
2023-04-22T11:31:02.855Z,97941.59
2023-04-22T11:33:31.424Z,97935.78
2023-04-22T11:35:59.573Z,97939.47
2023-04-22T11:38:29.492Z,97945.72
2023-04-22T11:40:58.543Z,97946.50
2023-04-22T11:43:27.279Z,97943.06
2023-04-22T11:45:57.268Z,97935.22
2023-04-22T11:48:26.027Z,97947.81
2023-04-22T11:51:09.149Z,97941.34
2023-04-22T11:53:41.355Z,97930.91
2023-04-22T11:56:09.608Z,97925.53
2023-04-22T11:58:40.888Z,97929.97
2023-04-22T12:01:13.958Z,97922.59
2023-04-22T12:03:42.920Z,97927.53
2023-04-22T12:06:11.384Z,97935.91
2023-04-22T12:08:43.702Z,97922.34
2023-04-22T12:11:13.063Z,97932.75
2023-04-22T12:13:46.923Z,97924.19
2023-04-22T12:16:16.734Z,97916.16
2023-04-22T12:18:50.693Z,97922.72
2023-04-22T12:21:20.402Z,97926.41
2023-04-22T12:23:51.684Z,97915.59
2023-04-22T12:26:21.775Z,97914.38
2023-04-22T12:28:52.303Z,97917.44
2023-04-22T12:31:21.428Z,97919.72
2023-04-22T12:33:50.261Z,97922.09
2023-04-22T12:36:20.930Z,97914.25
2023-04-22T12:38:51.402Z,97915.06
2023-04-22T12:41:19.728Z,97905.28
2023-04-22T12:43:48.373Z,97902.13
2023-04-22T12:46:16.599Z,97904.63
2023-04-22T12:48:45.151Z,97897.47
2023-04-22T12:51:13.372Z,97904.34
2023-04-22T12:53:42.165Z,97897.53
2023-04-22T12:56:11.871Z,97900.34
2023-04-22T12:58:40.461Z,97884.25
2023-04-22T13:01:08.694Z,97903.34
2023-04-22T13:03:37.283Z,97904.88
2023-04-22T13:06:05.631Z,97899.53
2023-04-22T13:08:34.127Z,97896.28
2023-04-22T13:11:02.277Z,97899.88
2023-04-22T13:13:32.338Z,97894.94
2023-04-22T13:16:00.630Z,97888.00
2023-04-22T13:18:29.103Z,97885.81
2023-04-22T13:20:57.439Z,97883.06
2023-04-22T13:23:29.917Z,97876.38
2023-04-22T13:25:58.130Z,97876.78
2023-04-22T13:28:26.936Z,97876.19
2023-04-22T13:30:57.127Z,97880.31
2023-04-22T13:33:25.590Z,97875.88
2023-04-22T13:35:53.707Z,97866.19
2023-04-22T13:38:22.211Z,97861.44
2023-04-22T13:40:52.381Z,97863.03
2023-04-22T13:43:21.030Z,97866.22
2023-04-22T13:45:49.353Z,97856.19
2023-04-22T13:48:19.273Z,97865.00
2023-04-22T13:50:47.607Z,97858.09
2023-04-22T13:53:16.317Z,97858.06
2023-04-22T13:55:44.654Z,97859.47
2023-04-22T13:58:13.381Z,97857.81
2023-04-22T14:00:41.530Z,97855.00
2023-04-22T14:03:10.085Z,97849.44
2023-04-22T14:05:39.729Z,97858.88
2023-04-22T14:08:08.211Z,97849.44
2023-04-22T14:10:36.391Z,97854.44
2023-04-22T14:13:04.934Z,97849.16
2023-04-22T14:15:33.223Z,97851.59
2023-04-22T14:18:01.699Z,97849.69
2023-04-22T14:20:29.947Z,97843.91
2023-04-22T14:23:00.986Z,97845.75
2023-04-22T14:25:29.148Z,97851.47
2023-04-22T14:27:57.598Z,97847.19
2023-04-22T14:30:25.903Z,97844.59
2023-04-22T14:32:54.498Z,97846.38
2023-04-22T14:35:23.065Z,97835.00
2023-04-22T14:37:51.565Z,97833.41
2023-04-22T14:40:23.178Z,97827.25
2023-04-22T14:42:51.750Z,97835.19
2023-04-22T14:45:20.045Z,97838.78
2023-04-22T14:47:48.591Z,97830.34
2023-04-22T14:50:16.876Z,97841.78
2023-04-22T14:52:45.562Z,97838.63
2023-04-22T14:55:22.373Z,97825.06
2023-04-22T14:57:57.750Z,97835.28
2023-04-22T15:00:26.826Z,97828.44
2023-04-22T15:02:56.111Z,97826.84
2023-04-22T15:05:24.727Z,97833.59
2023-04-22T15:07:53.306Z,97831.63
2023-04-22T15:10:21.871Z,97835.28
2023-04-22T15:12:50.596Z,97823.63
2023-04-22T15:15:20.410Z,97830.13
2023-04-22T15:17:48.962Z,97829.56
2023-04-22T15:20:17.206Z,97821.16
2023-04-22T15:22:45.867Z,97816.38
2023-04-22T15:25:15.470Z,97817.63
2023-04-22T15:27:45.060Z,97819.72
2023-04-22T15:30:13.479Z,97815.66
2023-04-22T15:32:43.368Z,97813.31
2023-04-22T15:35:12.055Z,97818.84
2023-04-22T15:37:40.703Z,97816.78
2023-04-22T15:40:10.101Z,97815.56
2023-04-22T15:42:38.740Z,97822.16
2023-04-22T15:45:08.044Z,97814.63
2023-04-22T15:47:37.058Z,97816.59
2023-04-22T15:50:09.743Z,97815.94
2023-04-22T15:52:39.146Z,97813.94
2023-04-22T15:55:10.219Z,97819.56
2023-04-22T15:57:38.485Z,97819.75
2023-04-22T16:00:12.369Z,97818.84
2023-04-22T16:02:42.632Z,97816.34
2023-04-22T16:05:14.159Z,97817.63
2023-04-22T16:07:42.710Z,97813.50
2023-04-22T16:10:11.999Z,97811.97
2023-04-22T16:12:40.552Z,97817.09
2023-04-22T16:15:10.696Z,97810.78
2023-04-22T16:17:39.549Z,97812.34
2023-04-22T16:20:09.674Z,97810.44
2023-04-22T16:22:39.658Z,97810.44
2023-04-22T16:25:09.724Z,97799.56
2023-04-22T16:27:38.391Z,97804.66
2023-04-22T16:30:07.690Z,97806.38
2023-04-22T16:32:36.338Z,97802.63
2023-04-22T16:35:04.776Z,97808.97
2023-04-22T16:37:34.208Z,97804.97
2023-04-22T16:40:04.564Z,97799.81
2023-04-22T16:42:33.233Z,97798.91
2023-04-22T16:45:01.404Z,97802.47
2023-04-22T16:47:29.960Z,97797.19
2023-04-22T16:49:58.280Z,97805.19
2023-04-22T16:52:26.771Z,97803.81
2023-04-22T16:54:55.000Z,97801.06
2023-04-22T16:57:24.918Z,97803.38
2023-04-22T16:59:53.083Z,97798.28
2023-04-22T17:02:21.797Z,97801.84
2023-04-22T17:04:50.154Z,97795.72
2023-04-22T17:07:18.714Z,97792.50
2023-04-22T17:09:48.816Z,97793.22
2023-04-22T17:12:17.389Z,97798.09
2023-04-22T17:14:47.043Z,97795.50
2023-04-22T17:17:15.555Z,97800.41
2023-04-22T17:19:44.080Z,97807.97
2023-04-22T17:22:12.845Z,97805.97
2023-04-22T17:24:41.775Z,97804.03
2023-04-22T17:27:10.376Z,97807.97
2023-04-22T17:29:38.650Z,97812.69
2023-04-22T17:32:08.651Z,97802.91
2023-04-22T17:34:36.890Z,97808.00
2023-04-22T17:37:05.440Z,97805.88
2023-04-22T17:39:33.604Z,97804.63
2023-04-22T17:42:02.617Z,97803.25
2023-04-22T17:44:31.737Z,97805.31
2023-04-22T17:47:00.419Z,97801.16
2023-04-22T17:49:32.476Z,97814.59
2023-04-22T17:52:01.041Z,97811.31
2023-04-22T17:54:29.483Z,97820.75
2023-04-22T17:56:58.070Z,97820.59
2023-04-22T17:59:30.041Z,97814.63
2023-04-22T18:01:59.662Z,97822.03
2023-04-22T18:04:33.505Z,97830.28
2023-04-22T18:07:02.036Z,97835.84
2023-04-22T18:09:34.366Z,97828.22
2023-04-22T18:12:11.446Z,97834.16
2023-04-22T18:14:41.802Z,97836.41
2023-04-22T18:17:10.475Z,97838.75
2023-04-22T18:19:48.765Z,97839.94
2023-04-22T18:22:19.460Z,97843.53
2023-04-22T18:24:50.409Z,97846.03
2023-04-22T18:27:21.659Z,97853.19
2023-04-22T18:29:54.582Z,97861.91
2023-04-22T18:32:25.859Z,97858.00
2023-04-22T18:34:55.646Z,97856.47
2023-04-22T18:37:24.910Z,97859.06
2023-04-22T18:40:00.719Z,97867.88
2023-04-22T18:42:29.925Z,97867.53
2023-04-22T18:44:58.177Z,97872.19
2023-04-22T18:47:29.782Z,97864.88
2023-04-22T18:50:00.334Z,97862.47
2023-04-22T18:52:28.838Z,97864.59
2023-04-22T18:55:01.306Z,97861.53
2023-04-22T18:57:29.878Z,97871.72
2023-04-22T18:59:58.161Z,97864.94
2023-04-22T19:05:04.412Z,97873.81
2023-04-22T19:07:38.461Z,97867.63
2023-04-22T19:10:10.344Z,97864.22
2023-04-22T19:12:38.988Z,97866.72
2023-04-22T19:15:08.554Z,97870.41
2023-04-22T19:17:38.100Z,97871.56
2023-04-22T19:20:09.216Z,97871.03
2023-04-22T19:22:37.534Z,97869.56
2023-04-22T19:25:07.078Z,97866.47
2023-04-22T19:27:35.726Z,97869.34
2023-04-22T19:30:04.349Z,97871.59
2023-04-22T19:32:32.977Z,97868.78
2023-04-22T19:35:03.879Z,97864.03
2023-04-22T19:37:34.230Z,97860.81
2023-04-22T19:40:02.429Z,97871.00
2023-04-22T19:42:31.073Z,97871.78
2023-04-22T19:44:59.652Z,97866.50
2023-04-22T19:47:28.600Z,97863.47
2023-04-22T19:49:57.514Z,97870.13
2023-04-22T19:52:26.216Z,97861.50
2023-04-22T19:54:58.868Z,97858.22
2023-04-22T19:57:27.746Z,97855.66
2023-04-22T19:59:56.314Z,97864.09
2023-04-22T20:02:26.404Z,97857.19
2023-04-22T20:04:55.129Z,97859.34
2023-04-22T20:07:24.105Z,97863.91
2023-04-22T20:09:52.729Z,97853.16
2023-04-22T20:12:23.065Z,97859.88
2023-04-22T20:14:51.404Z,97859.91
2023-04-22T20:17:20.413Z,97858.09
2023-04-22T20:19:50.331Z,97860.84
2023-04-22T20:22:19.091Z,97855.88
2023-04-22T20:24:48.941Z,97855.50
2023-04-22T20:27:17.903Z,97860.50
2023-04-22T20:29:49.651Z,97858.03
2023-04-22T20:32:18.291Z,97859.81
2023-04-22T20:34:46.994Z,97858.78
2023-04-22T20:37:16.265Z,97857.81
2023-04-22T20:39:44.770Z,97853.34
2023-04-22T20:42:13.678Z,97853.16
2023-04-22T20:44:42.027Z,97850.53
2023-04-22T20:47:12.400Z,97856.81
2023-04-22T20:49:41.223Z,97847.19
2023-04-22T20:52:10.032Z,97851.00
2023-04-22T20:54:38.546Z,97853.88
2023-04-22T20:57:08.107Z,97851.09
2023-04-22T20:59:37.022Z,97849.00
2023-04-22T21:02:06.683Z,97855.16
2023-04-22T21:04:37.203Z,97841.81
2023-04-22T21:07:07.317Z,97850.22
2023-04-22T21:09:36.241Z,97845.91
2023-04-22T21:12:05.485Z,97848.69
2023-04-22T21:14:34.117Z,97845.25
2023-04-22T21:17:05.319Z,97844.31
2023-04-22T21:19:34.537Z,97839.53
2023-04-22T21:22:06.346Z,97840.59
2023-04-22T21:24:35.124Z,97849.00
2023-04-22T21:27:04.217Z,97854.19
2023-04-22T21:29:32.907Z,97847.75
2023-04-22T21:32:09.346Z,97850.84
2023-04-22T21:34:38.224Z,97850.03
2023-04-22T21:37:09.038Z,97852.06
2023-04-22T21:39:37.534Z,97862.16
2023-04-22T21:42:08.676Z,97852.91
2023-04-22T21:44:38.193Z,97849.59
2023-04-22T21:47:06.974Z,97856.47
2023-04-22T21:49:35.291Z,97856.94
2023-04-22T21:52:03.907Z,97855.78
2023-04-22T21:54:33.837Z,97854.25
2023-04-22T21:57:02.279Z,97854.44
2023-04-22T21:59:31.543Z,97851.41
2023-04-22T22:01:59.907Z,97853.59
2023-04-22T22:04:28.598Z,97857.28
2023-04-22T22:06:56.974Z,97863.28
2023-04-22T22:09:26.545Z,97855.09
2023-04-22T22:11:56.303Z,97854.44
2023-04-22T22:14:25.401Z,97846.44
2023-04-22T22:16:54.311Z,97842.38
2023-04-22T22:19:22.850Z,97846.31
2023-04-22T22:21:51.385Z,97852.25
2023-04-22T22:24:20.537Z,97856.03
2023-04-22T22:26:48.790Z,97848.28
2023-04-22T22:29:18.584Z,97851.16
2023-04-22T22:31:47.180Z,97849.84
2023-04-22T22:34:15.642Z,97855.44
2023-04-22T22:36:43.918Z,97862.47
2023-04-22T22:39:14.496Z,97848.50
2023-04-22T22:41:44.032Z,97848.84
2023-04-22T22:44:12.702Z,97850.34
2023-04-22T22:46:42.368Z,97853.00
2023-04-22T22:49:11.174Z,97844.72
2023-04-22T22:51:39.450Z,97844.88
2023-04-22T22:54:08.134Z,97848.66
2023-04-22T22:56:36.370Z,97850.50
2023-04-22T22:59:04.790Z,97849.81
2023-04-22T23:01:33.227Z,97848.91
2023-04-22T23:04:03.339Z,97846.84
2023-04-22T23:06:31.993Z,97847.25
2023-04-22T23:09:00.418Z,97850.69
2023-04-22T23:11:28.766Z,97854.81
2023-04-22T23:13:57.991Z,97848.81
2023-04-22T23:16:26.385Z,97852.19
2023-04-22T23:18:56.335Z,97847.81
2023-04-22T23:21:26.408Z,97852.53
2023-04-22T23:23:56.080Z,97846.47
2023-04-22T23:26:24.880Z,97843.34
2023-04-22T23:28:53.710Z,97852.78
2023-04-22T23:31:24.252Z,97844.75
2023-04-22T23:33:53.316Z,97847.63
2023-04-22T23:36:23.347Z,97859.34
2023-04-22T23:38:53.403Z,97850.34
2023-04-22T23:41:21.636Z,97851.44
2023-04-22T23:43:50.146Z,97852.75
2023-04-22T23:46:18.911Z,97854.81
2023-04-22T23:48:47.616Z,97857.38
2023-04-22T23:51:16.925Z,97858.06
2023-04-22T23:53:45.898Z,97852.63
2023-04-22T23:56:20.243Z,97860.41
2023-04-22T23:58:49.340Z,97857.16
